| time (UTC) | temp C | wind direction | speed KPH | gust KPH | rain 1hr cm | rain 24hr cm | rain mn cm | humidity % | barometer mb |
| 20260507093005 | 20 | 263 | 3.2 | 4.8 | 0.00 | 0.00 | 0.00 | 32 | 1019.4 |
| 20260507090005 | 20 | 269 | 4.8 | 8.0 | 0.00 | 0.00 | 0.00 | 34 | 1019.4 |
| 20260507083005 | 20 | 194 | 6.4 | 11.3 | 0.00 | 0.00 | 0.00 | 34 | 1019.4 |
| 20260507070010 | 21 | 265 | 4.8 | 8.0 | 0.00 | 0.00 | 0.00 | 30 | 1019.0 |
| 20260507063004 | 22 | 258 | 8.0 | 14.5 | 0.00 | 0.00 | 0.00 | 29 | 1019.1 |
| 20260507060005 | 22 | 256 | 6.4 | 11.3 | 0.00 | 0.00 | 0.00 | 29 | 1019.0 |
| 20260507033004 | 23 | 225 | 1.6 | 4.8 | 0.00 | 0.00 | 0.00 | 25 | 1018.1 |
| 20260507023005 | 26 | 108 | 1.6 | 6.4 | 0.00 | 0.00 | 0.00 | 21 | 1017.5 |
| 20260507020004 | 27 | 72 | 4.8 | 9.7 | 0.00 | 0.00 | 0.00 | 20 | 1017.4 |
| 20260507000005 | 29 | 39 | 8.0 | 12.9 | 0.00 | 0.00 | 0.00 | 20 | 1017.1 |
| 20260506230005 | 29 | 8 | 1.6 | 6.4 | 0.00 | 0.00 | 0.00 | 20 | 1017.5 |
| 20260506220004 | 28 | 27 | 6.4 | 19.3 | 0.00 | 0.00 | 0.00 | 21 | 1018.1 |
| 20260506200004 | 26 | 82 | 4.8 | 20.9 | 0.00 | 0.00 | 0.00 | 24 | 1019.3 |
| 20260506190005 | 26 | 242 | 1.6 | 6.4 | 0.00 | 0.00 | 0.00 | 24 | 1019.6 |
| 20260506180006 | 23 | 339 | 3.2 | 9.7 | 0.00 | 0.00 | 0.00 | 27 | 1020.0 |
| 20260506173004 | 23 | 339 | 4.8 | 12.9 | 0.00 | 0.00 | 0.00 | 29 | 1020.0 |
| 20260506170004 | 22 | 309 | 3.2 | 9.7 | 0.00 | 0.00 | 0.00 | 31 | 1019.8 |
| 20260506160004 | 19 | 285 | 1.6 | 8.0 | 0.00 | 0.00 | 0.00 | 36 | 1019.7 |
| 20260506143005 | 15 | 276 | 4.8 | 9.7 | 0.00 | 0.00 | 0.00 | 45 | 1019.4 |
| 20260506130005 | 12 | 299 | 1.6 | 4.8 | 0.00 | 0.00 | 0.00 | 52 | 1018.4 |
| 20260506123005 | 12 | 279 | 4.8 | 11.3 | 0.00 | 0.00 | 0.00 | 53 | 1018.0 |
| 20260506120005 | 11 | 280 | 3.2 | 6.4 | 0.00 | 0.00 | 0.00 | 53 | 1017.9 |
| 20260506110005 | 11 | 255 | 3.2 | 6.4 | 0.00 | 0.00 | 0.00 | 53 | 1017.6 |
| 20260506103004 | 12 | 268 | 3.2 | 8.0 | 0.00 | 0.00 | 0.00 | 52 | 1017.4 |